sensor_id;sensor_type;location;lat;lon;timestamp;pressure;altitude;pressure_sealevel;temperature;humidity
12594;BME280;6362;50.208;9.182;2023-03-12T00:02:14;99609.69;;;-3.16;79.52
12594;BME280;6362;50.208;9.182;2023-03-12T00:04:39;99611.22;;;-3.20;79.45
12594;BME280;6362;50.208;9.182;2023-03-12T00:07:05;99614.19;;;-3.30;79.51
12594;BME280;6362;50.208;9.182;2023-03-12T00:09:37;99612.50;;;-3.29;79.77
12594;BME280;6362;50.208;9.182;2023-03-12T00:12:03;99615.59;;;-3.36;79.48
12594;BME280;6362;50.208;9.182;2023-03-12T00:14:29;99611.13;;;-3.42;80.15
12594;BME280;6362;50.208;9.182;2023-03-12T00:16:54;99608.56;;;-3.42;80.09
12594;BME280;6362;50.208;9.182;2023-03-12T00:19:20;99612.75;;;-3.44;80.41
12594;BME280;6362;50.208;9.182;2023-03-12T00:21:46;99607.56;;;-3.46;80.40
12594;BME280;6362;50.208;9.182;2023-03-12T00:24:12;99610.56;;;-3.35;80.25
12594;BME280;6362;50.208;9.182;2023-03-12T00:26:37;99606.19;;;-3.18;80.24
12594;BME280;6362;50.208;9.182;2023-03-12T00:29:02;99605.47;;;-3.15;80.34
12594;BME280;6362;50.208;9.182;2023-03-12T00:31:30;99617.13;;;-3.21;80.87
12594;BME280;6362;50.208;9.182;2023-03-12T00:33:58;99607.81;;;-3.20;80.82
12594;BME280;6362;50.208;9.182;2023-03-12T00:36:26;99610.28;;;-3.22;80.83
12594;BME280;6362;50.208;9.182;2023-03-12T00:38:53;99606.06;;;-3.21;80.68
12594;BME280;6362;50.208;9.182;2023-03-12T00:41:19;99608.72;;;-3.18;80.36
12594;BME280;6362;50.208;9.182;2023-03-12T00:43:46;99609.75;;;-3.14;80.34
12594;BME280;6362;50.208;9.182;2023-03-12T00:46:12;99606.53;;;-3.10;80.66
12594;BME280;6362;50.208;9.182;2023-03-12T00:48:37;99608.56;;;-3.02;80.59
12594;BME280;6362;50.208;9.182;2023-03-12T00:51:03;99602.75;;;-2.99;80.59
12594;BME280;6362;50.208;9.182;2023-03-12T00:53:28;99602.78;;;-2.98;80.63
12594;BME280;6362;50.208;9.182;2023-03-12T00:55:54;99589.50;;;-2.70;80.50
12594;BME280;6362;50.208;9.182;2023-03-12T00:58:19;99588.50;;;-2.73;80.32
12594;BME280;6362;50.208;9.182;2023-03-12T01:00:44;99594.88;;;-2.62;80.03
12594;BME280;6362;50.208;9.182;2023-03-12T01:03:10;99583.56;;;-2.70;80.12
12594;BME280;6362;50.208;9.182;2023-03-12T01:05:36;99587.06;;;-2.67;80.25
12594;BME280;6362;50.208;9.182;2023-03-12T01:08:11;99593.06;;;-2.66;80.27
12594;BME280;6362;50.208;9.182;2023-03-12T01:10:41;99588.81;;;-2.66;80.55
12594;BME280;6362;50.208;9.182;2023-03-12T01:13:07;99576.84;;;-2.68;80.55
12594;BME280;6362;50.208;9.182;2023-03-12T01:15:32;99588.88;;;-2.64;80.59
12594;BME280;6362;50.208;9.182;2023-03-12T01:17:58;99590.50;;;-2.66;80.84
12594;BME280;6362;50.208;9.182;2023-03-12T01:20:23;99580.75;;;-2.55;80.19
12594;BME280;6362;50.208;9.182;2023-03-12T01:22:49;99583.41;;;-2.52;80.43
12594;BME280;6362;50.208;9.182;2023-03-12T01:25:15;99579.13;;;-2.53;80.14
12594;BME280;6362;50.208;9.182;2023-03-12T01:27:41;99584.84;;;-2.36;80.02
12594;BME280;6362;50.208;9.182;2023-03-12T01:30:07;99581.91;;;-2.47;79.61
12594;BME280;6362;50.208;9.182;2023-03-12T01:32:32;99576.13;;;-2.43;79.99
12594;BME280;6362;50.208;9.182;2023-03-12T01:34:58;99583.53;;;-2.49;79.78
12594;BME280;6362;50.208;9.182;2023-03-12T01:37:25;99585.50;;;-2.42;80.18
12594;BME280;6362;50.208;9.182;2023-03-12T01:39:51;99588.72;;;-2.46;80.04
12594;BME280;6362;50.208;9.182;2023-03-12T01:42:16;99589.19;;;-2.34;79.20
12594;BME280;6362;50.208;9.182;2023-03-12T01:44:55;99586.88;;;-2.28;79.38
12594;BME280;6362;50.208;9.182;2023-03-12T01:47:21;99596.03;;;-2.33;nan
12594;BME280;6362;50.208;9.182;2023-03-12T01:49:49;99590.63;;;-2.41;79.27
12594;BME280;6362;50.208;9.182;2023-03-12T01:54:51;99581.03;;;-2.48;80.21
12594;BME280;6362;50.208;9.182;2023-03-12T01:57:21;99580.13;;;-2.50;80.53
12594;BME280;6362;50.208;9.182;2023-03-12T01:59:53;99579.16;;;-2.52;80.39
12594;BME280;6362;50.208;9.182;2023-03-12T02:02:22;99569.94;;;-2.50;80.54
12594;BME280;6362;50.208;9.182;2023-03-12T02:05:06;99578.44;;;-2.49;80.24
12594;BME280;6362;50.208;9.182;2023-03-12T02:07:34;99576.63;;;-2.52;80.05
12594;BME280;6362;50.208;9.182;2023-03-12T02:10:00;99571.59;;;-2.50;80.24
12594;BME280;6362;50.208;9.182;2023-03-12T02:12:26;99571.72;;;-2.47;80.30
12594;BME280;6362;50.208;9.182;2023-03-12T02:14:52;99564.34;;;-2.40;79.71
12594;BME280;6362;50.208;9.182;2023-03-12T02:17:17;99558.41;;;-2.40;79.52
12594;BME280;6362;50.208;9.182;2023-03-12T02:22:18;99560.75;;;-2.45;79.84
12594;BME280;6362;50.208;9.182;2023-03-12T02:24:51;99546.66;;;-2.36;79.61
12594;BME280;6362;50.208;9.182;2023-03-12T02:27:18;99557.84;;;-2.33;78.97
12594;BME280;6362;50.208;9.182;2023-03-12T02:29:45;99560.94;;;-2.40;79.81
12594;BME280;6362;50.208;9.182;2023-03-12T02:32:25;99564.44;;;-2.38;79.36
12594;BME280;6362;50.208;9.182;2023-03-12T02:34:52;99574.50;;;-2.41;79.97
12594;BME280;6362;50.208;9.182;2023-03-12T02:37:18;99565.97;;;-2.42;79.96
12594;BME280;6362;50.208;9.182;2023-03-12T02:39:50;99565.97;;;-2.42;80.37
12594;BME280;6362;50.208;9.182;2023-03-12T02:42:19;99561.75;;;-2.41;80.19
12594;BME280;6362;50.208;9.182;2023-03-12T02:44:45;99565.16;;;-2.41;80.58
12594;BME280;6362;50.208;9.182;2023-03-12T02:47:11;99554.16;;;-2.40;80.50
12594;BME280;6362;50.208;9.182;2023-03-12T02:49:36;99559.78;;;-2.26;79.65
12594;BME280;6362;50.208;9.182;2023-03-12T02:52:02;99563.25;;;-2.24;79.38
12594;BME280;6362;50.208;9.182;2023-03-12T02:54:28;99561.56;;;-2.23;78.87
12594;BME280;6362;50.208;9.182;2023-03-12T02:56:54;99562.38;;;-2.24;78.91
12594;BME280;6362;50.208;9.182;2023-03-12T02:59:21;99564.13;;;-2.23;79.28
12594;BME280;6362;50.208;9.182;2023-03-12T03:01:51;99554.69;;;-2.26;79.45
12594;BME280;6362;50.208;9.182;2023-03-12T03:04:16;99555.97;;;-2.15;79.30
12594;BME280;6362;50.208;9.182;2023-03-12T03:06:42;99560.28;;;-2.12;79.71
12594;BME280;6362;50.208;9.182;2023-03-12T03:09:08;99552.47;;;-2.17;79.92
12594;BME280;6362;50.208;9.182;2023-03-12T03:11:33;99551.69;;;-2.16;79.49
12594;BME280;6362;50.208;9.182;2023-03-12T03:13:58;99561.78;;;-2.17;79.91
12594;BME280;6362;50.208;9.182;2023-03-12T03:16:24;99560.88;;;-2.19;79.91
12594;BME280;6362;50.208;9.182;2023-03-12T03:18:50;99558.28;;;-2.21;80.10
12594;BME280;6362;50.208;9.182;2023-03-12T03:21:16;99559.19;;;-2.19;80.25
12594;BME280;6362;50.208;9.182;2023-03-12T03:23:44;99554.09;;;-2.19;80.31
12594;BME280;6362;50.208;9.182;2023-03-12T03:26:10;99544.78;;;-2.18;80.50
12594;BME280;6362;50.208;9.182;2023-03-12T03:28:36;99545.72;;;-2.16;80.42
12594;BME280;6362;50.208;9.182;2023-03-12T03:31:02;99540.69;;;-2.15;80.25
12594;BME280;6362;50.208;9.182;2023-03-12T03:33:28;99533.53;;;-2.01;79.94
12594;BME280;6362;50.208;9.182;2023-03-12T03:35:55;99534.16;;;-2.06;79.80
12594;BME280;6362;50.208;9.182;2023-03-12T03:38:22;99533.47;;;-2.02;80.00
12594;BME280;6362;50.208;9.182;2023-03-12T03:40:47;99529.84;;;-2.09;79.69
12594;BME280;6362;50.208;9.182;2023-03-12T03:43:13;99527.19;;;-2.12;79.94
12594;BME280;6362;50.208;9.182;2023-03-12T03:45:38;99521.22;;;-2.13;80.32
12594;BME280;6362;50.208;9.182;2023-03-12T03:48:04;99526.44;;;-2.09;80.45
12594;BME280;6362;50.208;9.182;2023-03-12T03:50:29;99522.31;;;-2.06;79.96
12594;BME280;6362;50.208;9.182;2023-03-12T03:52:55;99526.59;;;-2.05;79.83
12594;BME280;6362;50.208;9.182;2023-03-12T03:55:21;99521.00;;;-1.95;79.86
12594;BME280;6362;50.208;9.182;2023-03-12T03:57:46;99520.13;;;-1.95;79.86
12594;BME280;6362;50.208;9.182;2023-03-12T04:00:12;99528.31;;;-1.80;79.59
12594;BME280;6362;50.208;9.182;2023-03-12T04:02:42;99529.69;;;-1.90;79.41
12594;BME280;6362;50.208;9.182;2023-03-12T04:05:08;99531.28;;;-1.93;79.67
12594;BME280;6362;50.208;9.182;2023-03-12T04:07:34;99521.91;;;-1.94;80.00
12594;BME280;6362;50.208;9.182;2023-03-12T04:10:00;99524.50;;;-1.93;79.76
12594;BME280;6362;50.208;9.182;2023-03-12T04:12:25;99525.22;;;-1.95;79.23
12594;BME280;6362;50.208;9.182;2023-03-12T04:14:52;99528.88;;;-1.89;78.82
12594;BME280;6362;50.208;9.182;2023-03-12T04:17:18;99530.63;;;-1.88;78.61
12594;BME280;6362;50.208;9.182;2023-03-12T04:19:44;99527.34;;;-1.60;78.20
12594;BME280;6362;50.208;9.182;2023-03-12T04:22:09;99533.09;;;-1.65;78.17
12594;BME280;6362;50.208;9.182;2023-03-12T04:24:35;99532.31;;;-1.63;78.52
12594;BME280;6362;50.208;9.182;2023-03-12T04:27:00;99525.34;;;-1.68;78.61
12594;BME280;6362;50.208;9.182;2023-03-12T04:29:26;99525.13;;;-1.74;79.03
12594;BME280;6362;50.208;9.182;2023-03-12T04:31:51;99528.53;;;-1.74;79.35
12594;BME280;6362;50.208;9.182;2023-03-12T04:34:17;99518.34;;;-1.74;79.73
12594;BME280;6362;50.208;9.182;2023-03-12T04:36:42;99528.59;;;-1.72;79.87
12594;BME280;6362;50.208;9.182;2023-03-12T04:39:09;99524.38;;;-1.72;80.12
12594;BME280;6362;50.208;9.182;2023-03-12T04:41:35;99527.03;;;-1.69;79.78
12594;BME280;6362;50.208;9.182;2023-03-12T04:44:02;99520.41;;;-1.64;79.11
12594;BME280;6362;50.208;9.182;2023-03-12T04:46:27;99514.44;;;-1.64;78.72
12594;BME280;6362;50.208;9.182;2023-03-12T04:48:53;99525.63;;;-1.61;78.21
12594;BME280;6362;50.208;9.182;2023-03-12T04:51:18;99537.53;;;-1.60;76.67
12594;BME280;6362;50.208;9.182;2023-03-12T04:53:44;99537.75;;;-1.53;76.36
12594;BME280;6362;50.208;9.182;2023-03-12T04:56:09;99529.41;;;-1.49;75.74
12594;BME280;6362;50.208;9.182;2023-03-12T04:58:35;99522.63;;;-1.49;76.00
12594;BME280;6362;50.208;9.182;2023-03-12T05:01:01;99526.13;;;-1.45;76.10
12594;BME280;6362;50.208;9.182;2023-03-12T05:03:27;99526.03;;;-1.48;75.38
12594;BME280;6362;50.208;9.182;2023-03-12T05:05:52;99517.59;;;-1.46;75.79
12594;BME280;6362;50.208;9.182;2023-03-12T05:08:18;99525.56;;;-1.37;76.56
12594;BME280;6362;50.208;9.182;2023-03-12T05:10:46;99523.88;;;-1.36;76.99
12594;BME280;6362;50.208;9.182;2023-03-12T05:13:20;99525.72;;;-1.32;77.57
12594;BME280;6362;50.208;9.182;2023-03-12T05:15:47;99518.81;;;-1.35;78.15
12594;BME280;6362;50.208;9.182;2023-03-12T05:18:15;99524.00;;;-1.33;78.21
12594;BME280;6362;50.208;9.182;2023-03-12T05:20:41;99518.81;;;-1.35;78.23
12594;BME280;6362;50.208;9.182;2023-03-12T05:23:06;99517.97;;;-1.35;78.58
12594;BME280;6362;50.208;9.182;2023-03-12T05:25:32;99501.78;;;-1.36;78.52
12594;BME280;6362;50.208;9.182;2023-03-12T05:27:57;99496.94;;;-1.28;78.22
12594;BME280;6362;50.208;9.182;2023-03-12T05:30:23;99492.81;;;-1.24;77.54
12594;BME280;6362;50.208;9.182;2023-03-12T05:32:48;99482.53;;;-1.27;77.38
12594;BME280;6362;50.208;9.182;2023-03-12T05:35:14;99481.53;;;-1.31;77.97
12594;BME280;6362;50.208;9.182;2023-03-12T05:37:39;99483.31;;;-1.28;78.19
12594;BME280;6362;50.208;9.182;2023-03-12T05:40:09;99486.72;;;-1.28;78.40
12594;BME280;6362;50.208;9.182;2023-03-12T05:42:35;99486.78;;;-1.26;77.98
12594;BME280;6362;50.208;9.182;2023-03-12T05:45:00;99483.50;;;-1.22;77.94
12594;BME280;6362;50.208;9.182;2023-03-12T05:47:25;99487.81;;;-1.21;77.89
12594;BME280;6362;50.208;9.182;2023-03-12T05:49:51;99485.25;;;-1.21;77.74
12594;BME280;6362;50.208;9.182;2023-03-12T05:52:16;99487.00;;;-1.20;77.17
12594;BME280;6362;50.208;9.182;2023-03-12T05:54:42;99484.44;;;-1.20;76.67
12594;BME280;6362;50.208;9.182;2023-03-12T05:57:07;99483.59;;;-0.94;75.91
12594;BME280;6362;50.208;9.182;2023-03-12T05:59:33;99479.50;;;-0.89;75.82
12594;BME280;6362;50.208;9.182;2023-03-12T06:01:58;99477.53;;;-0.96;75.71
12594;BME280;6362;50.208;9.182;2023-03-12T06:04:24;99478.50;;;-0.92;75.71
12594;BME280;6362;50.208;9.182;2023-03-12T06:06:49;99470.53;;;-1.03;76.38
12594;BME280;6362;50.208;9.182;2023-03-12T06:09:15;99471.44;;;-1.01;76.92
12594;BME280;6362;50.208;9.182;2023-03-12T06:11:40;99463.78;;;-1.01;76.99
12594;BME280;6362;50.208;9.182;2023-03-12T06:14:06;99466.66;;;-0.90;76.94
12594;BME280;6362;50.208;9.182;2023-03-12T06:16:31;99461.56;;;-0.90;77.09
12594;BME280;6362;50.208;9.182;2023-03-12T06:19:01;99463.38;;;-0.86;77.35
12594;BME280;6362;50.208;9.182;2023-03-12T06:21:32;99463.50;;;-0.83;77.01
12594;BME280;6362;50.208;9.182;2023-03-12T06:23:59;99461.06;;;-0.78;76.04
12594;BME280;6362;50.208;9.182;2023-03-12T06:26:25;99469.00;;;-0.69;74.27
12594;BME280;6362;50.208;9.182;2023-03-12T06:28:51;99472.59;;;-0.63;73.92
12594;BME280;6362;50.208;9.182;2023-03-12T06:31:18;99470.19;;;-0.58;72.11
12594;BME280;6362;50.208;9.182;2023-03-12T06:33:43;99471.28;;;-0.50;72.21
12594;BME280;6362;50.208;9.182;2023-03-12T06:36:09;99474.09;;;-0.41;71.98
12594;BME280;6362;50.208;9.182;2023-03-12T06:38:35;99462.13;;;-0.42;70.85
12594;BME280;6362;50.208;9.182;2023-03-12T06:41:13;99469.22;;;-0.33;71.45
12594;BME280;6362;50.208;9.182;2023-03-12T06:43:39;99466.00;;;-0.26;71.16
12594;BME280;6362;50.208;9.182;2023-03-12T06:46:07;99465.50;;;-0.13;72.09
12594;BME280;6362;50.208;9.182;2023-03-12T06:48:34;99468.22;;;-0.07;72.83
12594;BME280;6362;50.208;9.182;2023-03-12T06:51:04;99466.66;;;-0.02;73.36
12594;BME280;6362;50.208;9.182;2023-03-12T06:53:30;99459.22;;;0.06;73.55
12594;BME280;6362;50.208;9.182;2023-03-12T06:55:56;99462.63;;;0.07;72.18
12594;BME280;6362;50.208;9.182;2023-03-12T06:58:22;99452.44;;;0.08;70.47
12594;BME280;6362;50.208;9.182;2023-03-12T07:00:49;99448.22;;;0.10;69.81
12594;BME280;6362;50.208;9.182;2023-03-12T07:03:15;99464.31;;;0.06;69.76
12594;BME280;6362;50.208;9.182;2023-03-12T07:05:45;99467.09;;;0.15;69.94
12594;BME280;6362;50.208;9.182;2023-03-12T07:08:11;99476.16;;;0.34;71.30
12594;BME280;6362;50.208;9.182;2023-03-12T07:10:36;99466.09;;;0.42;71.89
12594;BME280;6362;50.208;9.182;2023-03-12T07:13:02;99475.19;;;0.31;72.01
12594;BME280;6362;50.208;9.182;2023-03-12T07:15:27;99482.88;;;0.31;72.53
12594;BME280;6362;50.208;9.182;2023-03-12T07:17:53;99482.13;;;0.35;73.05
12594;BME280;6362;50.208;9.182;2023-03-12T07:20:18;99482.25;;;0.39;72.77
12594;BME280;6362;50.208;9.182;2023-03-12T07:22:44;99478.22;;;0.49;71.17
12594;BME280;6362;50.208;9.182;2023-03-12T07:25:10;99469.03;;;0.56;70.71
12594;BME280;6362;50.208;9.182;2023-03-12T07:27:35;99462.13;;;0.53;71.68
12594;BME280;6362;50.208;9.182;2023-03-12T07:30:01;99453.88;;;0.65;70.76
12594;BME280;6362;50.208;9.182;2023-03-12T07:32:27;99450.06;;;0.84;71.16
12594;BME280;6362;50.208;9.182;2023-03-12T07:34:52;99454.38;;;0.86;71.17
12594;BME280;6362;50.208;9.182;2023-03-12T07:37:18;99442.59;;;0.93;71.43
12594;BME280;6362;50.208;9.182;2023-03-12T07:39:43;99456.84;;;1.19;75.46
12594;BME280;6362;50.208;9.182;2023-03-12T07:42:09;99467.06;;;1.57;76.34
12594;BME280;6362;50.208;9.182;2023-03-12T07:44:37;99472.59;;;1.77;73.08
12594;BME280;6362;50.208;9.182;2023-03-12T07:47:02;99473.84;;;1.97;73.11
12594;BME280;6362;50.208;9.182;2023-03-12T07:49:28;99478.75;;;2.30;73.32
12594;BME280;6362;50.208;9.182;2023-03-12T07:51:53;99476.75;;;2.61;67.61
12594;BME280;6362;50.208;9.182;2023-03-12T07:54:19;99467.25;;;2.57;65.39
12594;BME280;6362;50.208;9.182;2023-03-12T07:56:44;99461.84;;;2.42;60.69
12594;BME280;6362;50.208;9.182;2023-03-12T07:59:10;99460.91;;;2.36;62.14
12594;BME280;6362;50.208;9.182;2023-03-12T08:01:35;99466.44;;;2.11;63.16
12594;BME280;6362;50.208;9.182;2023-03-12T08:04:01;99465.53;;;2.10;62.18
12594;BME280;6362;50.208;9.182;2023-03-12T08:06:28;99462.72;;;1.97;62.57
12594;BME280;6362;50.208;9.182;2023-03-12T08:08:53;99470.34;;;1.92;61.64
12594;BME280;6362;50.208;9.182;2023-03-12T08:11:19;99454.09;;;1.92;61.91
12594;BME280;6362;50.208;9.182;2023-03-12T08:13:44;99448.72;;;1.79;62.61
12594;BME280;6362;50.208;9.182;2023-03-12T08:16:10;99444.34;;;1.74;62.84
12594;BME280;6362;50.208;9.182;2023-03-12T08:18:36;99448.03;;;1.88;62.66
12594;BME280;6362;50.208;9.182;2023-03-12T08:21:04;99443.91;;;1.96;62.58
12594;BME280;6362;50.208;9.182;2023-03-12T08:23:32;99444.81;;;2.00;62.24
12594;BME280;6362;50.208;9.182;2023-03-12T08:26:00;99451.66;;;1.99;62.80
12594;BME280;6362;50.208;9.182;2023-03-12T08:28:28;99455.91;;;1.99;62.70
12594;BME280;6362;50.208;9.182;2023-03-12T08:30:57;99453.34;;;1.99;63.04
12594;BME280;6362;50.208;9.182;2023-03-12T08:33:29;99460.16;;;1.95;63.49
12594;BME280;6362;50.208;9.182;2023-03-12T08:35:56;99449.78;;;1.89;63.32
12594;BME280;6362;50.208;9.182;2023-03-12T08:38:24;99452.59;;;2.04;63.02
12594;BME280;6362;50.208;9.182;2023-03-12T08:40:58;99453.44;;;2.02;62.73
12594;BME280;6362;50.208;9.182;2023-03-12T08:43:27;99447.47;;;2.03;63.63
12594;BME280;6362;50.208;9.182;2023-03-12T08:45:57;99450.09;;;2.06;63.85
12594;BME280;6362;50.208;9.182;2023-03-12T08:48:24;99445.06;;;2.12;64.26
12594;BME280;6362;50.208;9.182;2023-03-12T08:50:50;99455.34;;;2.12;64.33
12594;BME280;6362;50.208;9.182;2023-03-12T08:53:23;99446.03;;;2.17;64.59
12594;BME280;6362;50.208;9.182;2023-03-12T08:55:56;99444.38;;;2.21;64.51
12594;BME280;6362;50.208;9.182;2023-03-12T08:58:25;99431.72;;;2.31;64.58
12594;BME280;6362;50.208;9.182;2023-03-12T09:00:51;99437.69;;;2.30;65.44
12594;BME280;6362;50.208;9.182;2023-03-12T09:03:17;99434.38;;;2.37;66.10
12594;BME280;6362;50.208;9.182;2023-03-12T09:05:43;99440.34;;;2.35;66.91
12594;BME280;6362;50.208;9.182;2023-03-12T09:08:11;99437.06;;;2.44;67.99
12594;BME280;6362;50.208;9.182;2023-03-12T09:10:38;99437.69;;;2.30;68.88
12594;BME280;6362;50.208;9.182;2023-03-12T09:13:07;99437.97;;;2.46;69.81
12594;BME280;6362;50.208;9.182;2023-03-12T09:15:32;99442.91;;;2.33;70.39
12594;BME280;6362;50.208;9.182;2023-03-12T09:18:01;99431.22;;;2.51;70.53
12594;BME280;6362;50.208;9.182;2023-03-12T09:20:26;99430.28;;;2.47;71.63
12594;BME280;6362;50.208;9.182;2023-03-12T09:22:55;99435.44;;;2.49;72.63
12594;BME280;6362;50.208;9.182;2023-03-12T09:25:21;99431.13;;;2.45;73.32
12594;BME280;6362;50.208;9.182;2023-03-12T09:27:47;99439.59;;;2.41;73.07
12594;BME280;6362;50.208;9.182;2023-03-12T09:30:16;99436.09;;;2.35;74.40
12594;BME280;6362;50.208;9.182;2023-03-12T09:32:46;99444.72;;;2.41;74.64
12594;BME280;6362;50.208;9.182;2023-03-12T09:35:15;99440.38;;;2.38;75.26
12594;BME280;6362;50.208;9.182;2023-03-12T09:37:47;99442.94;;;2.38;75.54
12594;BME280;6362;50.208;9.182;2023-03-12T09:40:20;99449.13;;;2.48;75.47
12594;BME280;6362;50.208;9.182;2023-03-12T09:42:51;99455.09;;;2.47;75.69
12594;BME280;6362;50.208;9.182;2023-03-12T09:45:30;99453.38;;;2.46;75.99
12594;BME280;6362;50.208;9.182;2023-03-12T09:48:03;99453.25;;;2.40;76.79
12594;BME280;6362;50.208;9.182;2023-03-12T09:50:36;99454.06;;;2.38;76.30
12594;BME280;6362;50.208;9.182;2023-03-12T09:55:48;99459.25;;;2.40;77.17
12594;BME280;6362;50.208;9.182;2023-03-12T09:58:28;99455.78;;;2.38;77.00
12594;BME280;6362;50.208;9.182;2023-03-12T10:01:05;99448.03;;;2.33;77.35
12594;BME280;6362;50.208;9.182;2023-03-12T10:06:21;99462.38;;;2.24;77.72
12594;BME280;6362;50.208;9.182;2023-03-12T10:11:35;99443.78;;;2.37;78.40
12594;BME280;6362;50.208;9.182;2023-03-12T10:27:49;99451.38;;;2.31;79.93
12594;BME280;6362;50.208;9.182;2023-03-12T10:30:26;99453.06;;;2.29;80.07
12594;BME280;6362;50.208;9.182;2023-03-12T10:32:57;99451.25;;;2.23;79.92
12594;BME280;6362;50.208;9.182;2023-03-12T10:35:29;99446.06;;;2.20;80.10
12594;BME280;6362;50.208;9.182;2023-03-12T10:37:59;99445.97;;;2.16;80.71
12594;BME280;6362;50.208;9.182;2023-03-12T10:40:33;99448.53;;;2.16;81.07
12594;BME280;6362;50.208;9.182;2023-03-12T10:43:00;99454.59;;;2.19;80.68
12594;BME280;6362;50.208;9.182;2023-03-12T10:45:44;99447.00;;;2.24;81.25
12594;BME280;6362;50.208;9.182;2023-03-12T10:48:21;99456.41;;;2.25;81.74
12594;BME280;6362;50.208;9.182;2023-03-12T10:51:21;99453.75;;;2.20;82.52
12594;BME280;6362;50.208;9.182;2023-03-12T10:53:50;99450.34;;;2.20;83.05
12594;BME280;6362;50.208;9.182;2023-03-12T10:56:17;99462.38;;;2.22;83.22
12594;BME280;6362;50.208;9.182;2023-03-12T10:58:48;99453.75;;;2.20;83.35
12594;BME280;6362;50.208;9.182;2023-03-12T11:01:29;99452.88;;;2.18;83.62
12594;BME280;6362;50.208;9.182;2023-03-12T11:04:31;99458.13;;;2.24;84.10
12594;BME280;6362;50.208;9.182;2023-03-12T11:12:35;99442.09;;;2.37;83.55
12594;BME280;6362;50.208;9.182;2023-03-12T11:15:26;99442.94;;;2.38;83.72
12594;BME280;6362;50.208;9.182;2023-03-12T11:18:21;99435.25;;;2.36;83.55
12594;BME280;6362;50.208;9.182;2023-03-12T11:20:49;99428.50;;;2.43;84.33
12594;BME280;6362;50.208;9.182;2023-03-12T11:23:26;99435.50;;;2.50;84.85
12594;BME280;6362;50.208;9.182;2023-03-12T11:26:00;99436.34;;;2.51;84.98
12594;BME280;6362;50.208;9.182;2023-03-12T11:28:35;99432.88;;;2.49;85.18
12594;BME280;6362;50.208;9.182;2023-03-12T11:31:15;99432.03;;;2.50;85.20
12594;BME280;6362;50.208;9.182;2023-03-12T11:33:52;99428.59;;;2.48;85.51
12594;BME280;6362;50.208;9.182;2023-03-12T11:36:28;99427.78;;;2.50;85.32
12594;BME280;6362;50.208;9.182;2023-03-12T11:39:19;99425.41;;;2.61;85.17
12594;BME280;6362;50.208;9.182;2023-03-12T11:45:25;99427.13;;;2.63;85.08
12594;BME280;6362;50.208;9.182;2023-03-12T12:18:59;99419.97;;;2.99;85.45
12594;BME280;6362;50.208;9.182;2023-03-12T12:21:33;99402.84;;;2.99;84.62
12594;BME280;6362;50.208;9.182;2023-03-12T12:25:11;99408.03;;;3.01;84.97
12594;BME280;6362;50.208;9.182;2023-03-12T12:27:28;99401.19;;;3.03;85.35
12594;BME280;6362;50.208;9.182;2023-03-12T12:33:10;99396.19;;;3.13;85.28
12594;BME280;6362;50.208;9.182;2023-03-12T12:35:49;99391.06;;;3.15;85.23
12594;BME280;6362;50.208;9.182;2023-03-12T12:38:48;99388.63;;;3.23;85.44
12594;BME280;6362;50.208;9.182;2023-03-12T12:41:21;99393.88;;;3.32;85.30
12594;BME280;6362;50.208;9.182;2023-03-12T12:43:50;99399.00;;;3.32;85.17
12594;BME280;6362;50.208;9.182;2023-03-12T12:46:22;99383.66;;;3.36;85.03
12594;BME280;6362;50.208;9.182;2023-03-12T12:49:10;99379.44;;;3.43;84.83
12594;BME280;6362;50.208;9.182;2023-03-12T12:51:44;99375.28;;;3.51;85.33
12594;BME280;6362;50.208;9.182;2023-03-12T13:02:37;99373.81;;;3.76;84.95
12594;BME280;6362;50.208;9.182;2023-03-12T13:05:17;99374.78;;;3.84;85.24
12594;BME280;6362;50.208;9.182;2023-03-12T13:07:43;99373.19;;;3.95;84.58
12594;BME280;6362;50.208;9.182;2023-03-12T13:13:20;99372.50;;;4.13;84.99
12594;BME280;6362;50.208;9.182;2023-03-12T13:15:50;99377.66;;;4.16;84.78
12594;BME280;6362;50.208;9.182;2023-03-12T13:18:31;99366.63;;;4.28;84.42
12594;BME280;6362;50.208;9.182;2023-03-12T13:21:11;99366.72;;;4.40;84.30
12594;BME280;6362;50.208;9.182;2023-03-12T13:24:03;99362.50;;;4.50;84.41
12594;BME280;6362;50.208;9.182;2023-03-12T13:26:54;99375.50;;;4.67;83.97
12594;BME280;6362;50.208;9.182;2023-03-12T13:31:54;99376.63;;;5.06;83.08
12594;BME280;6362;50.208;9.182;2023-03-12T13:36:50;99372.44;;;5.32;82.50
12594;BME280;6362;50.208;9.182;2023-03-12T13:39:34;99370.75;;;5.43;82.34
12594;BME280;6362;50.208;9.182;2023-03-12T13:44:52;99364.81;;;5.58;82.04
12594;BME280;6362;50.208;9.182;2023-03-12T13:47:29;99357.09;;;5.63;81.08
12594;BME280;6362;50.208;9.182;2023-03-12T13:52:47;99349.41;;;5.78;80.40
12594;BME280;6362;50.208;9.182;2023-03-12T13:55:27;99357.09;;;5.72;80.89
12594;BME280;6362;50.208;9.182;2023-03-12T13:58:19;99361.41;;;5.70;81.34
12594;BME280;6362;50.208;9.182;2023-03-12T14:00:56;99370.00;;;5.63;81.44
12594;BME280;6362;50.208;9.182;2023-03-12T14:03:42;99359.69;;;5.63;81.83
12594;BME280;6362;50.208;9.182;2023-03-12T14:06:13;99356.25;;;5.67;81.97
12594;BME280;6362;50.208;9.182;2023-03-12T14:12:16;99359.69;;;5.70;82.11
12594;BME280;6362;50.208;9.182;2023-03-12T14:17:35;99346.81;;;5.75;82.19
12594;BME280;6362;50.208;9.182;2023-03-12T14:20:10;99340.78;;;5.76;82.16
12594;BME280;6362;50.208;9.182;2023-03-12T14:22:40;99339.97;;;5.83;82.03
12594;BME280;6362;50.208;9.182;2023-03-12T14:25:35;99328.78;;;5.89;81.84
12594;BME280;6362;50.208;9.182;2023-03-12T14:28:39;99325.34;;;5.93;81.98
12594;BME280;6362;50.208;9.182;2023-03-12T14:31:21;99325.38;;;6.00;82.09
12594;BME280;6362;50.208;9.182;2023-03-12T14:36:52;99321.09;;;6.12;82.19
12594;BME280;6362;50.208;9.182;2023-03-12T14:39:38;99322.78;;;6.20;81.59
12594;BME280;6362;50.208;9.182;2023-03-12T14:42:07;99319.34;;;6.32;82.40
12594;BME280;6362;50.208;9.182;2023-03-12T14:44:37;99315.94;;;6.39;82.40
12594;BME280;6362;50.208;9.182;2023-03-12T14:47:15;99303.84;;;6.47;81.68
12594;BME280;6362;50.208;9.182;2023-03-12T14:49:43;99308.16;;;6.53;81.96
12594;BME280;6362;50.208;9.182;2023-03-12T14:52:20;99307.31;;;6.51;81.46
12594;BME280;6362;50.208;9.182;2023-03-12T14:55:22;99309.03;;;6.50;81.70
12594;BME280;6362;50.208;9.182;2023-03-12T14:58:16;99302.13;;;6.55;81.54
12594;BME280;6362;50.208;9.182;2023-03-12T15:00:58;99303.84;;;6.53;81.88
12594;BME280;6362;50.208;9.182;2023-03-12T15:03:28;99303.84;;;6.53;81.87
12594;BME280;6362;50.208;9.182;2023-03-12T15:06:00;99307.31;;;6.51;81.92
12594;BME280;6362;50.208;9.182;2023-03-12T15:08:26;99313.34;;;6.50;82.36
12594;BME280;6362;50.208;9.182;2023-03-12T15:10:55;99309.88;;;6.51;82.49
12594;BME280;6362;50.208;9.182;2023-03-12T15:13:23;99310.75;;;6.51;82.22